Time;durP1;ratioP1;P1;durP2;ratioP2;P2;SDS_P1;SDS_P2;PMS_P1;PMS_P2;Temp;Humidity;BMP_temperature;BMP_pressure;BME280_temperature;BME280_humidity;BME280_pressure;Samples;Min_cycle;Max_cycle;Signal;HPM_P1;HPM_P2
2022/08/03 00:00:05;;;;;;;2.60;2.40;;;18.20;99.90;;;;;;7374941;19;20328;-76
2022/08/03 00:02:38;;;;;;;2.90;2.40;;;18.20;99.90;;;;;;7370911;19;20341;-76
2022/08/03 00:05:03;;;;;;;2.87;2.67;;;18.10;99.90;;;;;;7372445;19;20367;-76
2022/08/03 00:07:29;;;;;;;2.47;2.35;;;18.10;99.90;;;;;;7372575;19;20380;-76
2022/08/03 00:09:54;;;;;;;2.55;2.35;;;18.10;99.90;;;;;;7377021;19;20358;-76
2022/08/03 00:12:20;;;;;;;2.23;2.10;;;18.00;99.90;;;;;;7371054;19;20384;-75
2022/08/03 00:14:46;;;;;;;2.67;2.47;;;18.10;99.90;;;;;;7373758;19;20624;-76
2022/08/03 00:17:11;;;;;;;2.60;2.40;;;18.00;99.90;;;;;;7372085;19;20350;-75
2022/08/03 00:19:37;;;;;;;2.87;2.67;;;18.00;99.90;;;;;;7375358;19;20349;-75
2022/08/03 00:22:02;;;;;;;2.60;2.40;;;18.00;99.90;;;;;;7372359;19;20352;-75
2022/08/03 00:24:29;;;;;;;2.90;2.70;;;17.90;99.90;;;;;;7373501;19;20344;-76
2022/08/03 00:26:55;;;;;;;2.75;2.55;;;17.80;99.90;;;;;;7373281;19;20356;-75
2022/08/03 00:29:21;;;;;;;3.08;2.88;;;17.70;99.90;;;;;;7373378;19;20816;-74
2022/08/03 00:31:46;;;;;;;2.77;2.57;;;17.70;99.90;;;;;;7370224;19;20340;-75
2022/08/03 00:34:12;;;;;;;3.20;2.90;;;17.70;99.90;;;;;;7373175;19;21314;-77
2022/08/03 00:36:37;;;;;;;2.80;2.60;;;17.70;99.90;;;;;;7373069;19;20342;-75
2022/08/03 00:39:03;;;;;;;2.57;2.33;;;17.60;99.90;;;;;;7371799;19;20321;-76
2022/08/03 00:41:28;;;;;;;2.30;2.20;;;17.60;99.90;;;;;;7374385;19;20412;-74
2022/08/03 00:43:54;;;;;;;2.95;2.65;;;17.60;99.90;;;;;;7370049;19;20344;-75
2022/08/03 00:46:21;;;;;;;2.87;2.67;;;17.60;99.90;;;;;;7372077;19;20379;-76
2022/08/03 00:48:47;;;;;;;3.80;3.45;;;17.60;99.90;;;;;;7371017;19;20998;-76
2022/08/03 00:51:13;;;;;;;3.30;2.90;;;17.50;99.90;;;;;;7372444;19;21242;-76
2022/08/03 00:53:38;;;;;;;3.13;2.93;;;17.50;99.90;;;;;;7370099;19;20375;-76
2022/08/03 00:56:04;;;;;;;4.57;3.10;;;17.50;99.90;;;;;;7377505;19;20468;-76
2022/08/03 00:58:30;;;;;;;3.10;2.80;;;17.50;99.90;;;;;;7378374;19;20355;-75
2022/08/03 01:00:55;;;;;;;3.33;3.03;;;17.40;99.90;;;;;;7381253;19;20387;-76
2022/08/03 01:03:21;;;;;;;2.90;2.70;;;17.30;99.90;;;;;;7374931;19;20347;-77
2022/08/03 01:06:10;;;;;;;3.73;2.90;;;17.30;99.90;;;;;;7377428;19;20948;-76
2022/08/03 01:08:47;;;;;;;2.70;2.50;;;17.20;99.90;;;;;;7378022;19;20369;-77
2022/08/03 01:11:22;;;;;;;2.67;2.47;;;17.20;99.90;;;;;;7380751;19;20398;-76
2022/08/03 01:13:58;;;;;;;3.10;2.90;;;17.30;99.90;;;;;;7379791;19;20333;-77
2022/08/03 01:16:32;;;;;;;3.45;3.15;;;17.20;99.90;;;;;;7380361;19;20351;-76
2022/08/03 01:19:02;;;;;;;2.72;2.53;;;17.10;99.90;;;;;;7379955;19;20349;-76
2022/08/03 01:21:33;;;;;;;3.10;2.85;;;17.10;99.90;;;;;;7381402;19;20487;-76
2022/08/03 01:24:22;;;;;;;4.05;3.22;;;17.00;99.90;;;;;;7376477;19;20371;-75
2022/08/03 01:27:10;;;;;;;3.10;2.83;;;17.10;99.90;;;;;;7374882;19;20408;-74
2022/08/03 01:29:57;;;;;;;3.33;3.10;;;17.00;99.90;;;;;;7380878;19;20337;-76
2022/08/03 01:32:57;;;;;;;3.10;2.90;;;16.90;99.90;;;;;;7376636;19;20352;-76
2022/08/03 01:35:38;;;;;;;2.78;2.50;;;16.80;99.90;;;;;;7377739;19;20345;-76
2022/08/03 01:38:06;;;;;;;3.25;2.75;;;16.80;99.90;;;;;;7378315;19;20347;-75
2022/08/03 01:40:33;;;;;;;3.10;2.75;;;16.80;99.90;;;;;;7381116;19;20343;-74
2022/08/03 01:42:58;;;;;;;3.40;2.80;;;16.80;99.90;;;;;;7377417;19;20371;-76
2022/08/03 01:45:24;;;;;;;3.20;3.00;;;16.80;99.90;;;;;;7376767;19;20758;-76
2022/08/03 01:47:50;;;;;;;2.57;2.43;;;16.90;99.90;;;;;;7379742;19;20357;-75
2022/08/03 01:50:16;;;;;;;3.75;3.15;;;16.80;99.90;;;;;;7379798;19;20359;-76
2022/08/03 01:52:42;;;;;;;3.05;2.85;;;16.80;99.90;;;;;;7380218;19;20382;-75
2022/08/03 01:55:08;;;;;;;3.60;3.07;;;16.70;99.90;;;;;;7381057;19;20336;-75
2022/08/03 01:57:34;;;;;;;3.00;2.80;;;16.70;99.90;;;;;;7378204;19;20360;-76
2022/08/03 01:59:59;;;;;;;3.30;3.03;;;16.60;99.90;;;;;;7380564;19;20346;-75
2022/08/03 02:02:25;;;;;;;3.00;2.80;;;16.60;99.90;;;;;;7377573;19;20352;-76
2022/08/03 02:04:51;;;;;;;3.40;3.10;;;16.60;99.90;;;;;;7378962;19;21454;-76
2022/08/03 02:07:17;;;;;;;3.22;2.92;;;16.50;99.90;;;;;;7375635;19;20329;-75
2022/08/03 02:09:43;;;;;;;3.10;2.90;;;16.50;99.90;;;;;;7381158;19;20532;-76
2022/08/03 02:12:10;;;;;;;3.80;3.50;;;16.50;99.90;;;;;;7375227;19;20357;-76
2022/08/03 02:14:36;;;;;;;3.67;3.38;;;16.50;99.90;;;;;;7379850;19;20378;-75
2022/08/03 02:17:01;;;;;;;3.40;3.10;;;16.40;99.90;;;;;;7376681;19;20348;-75
2022/08/03 02:19:27;;;;;;;3.20;3.00;;;16.40;99.90;;;;;;7380164;19;20749;-76
2022/08/03 02:21:52;;;;;;;3.83;3.20;;;16.40;99.90;;;;;;7378240;19;20337;-75
2022/08/03 02:24:18;;;;;;;3.70;3.40;;;16.40;99.90;;;;;;7379942;19;21264;-75
2022/08/03 02:26:44;;;;;;;4.43;3.03;;;16.40;99.90;;;;;;7375742;19;20369;-75
2022/08/03 02:29:20;;;;;;;3.67;3.20;;;16.40;99.90;;;;;;7379644;19;20870;-76
2022/08/03 02:31:45;;;;;;;2.88;2.67;;;16.30;99.90;;;;;;7376396;19;21019;-76
2022/08/03 02:34:13;;;;;;;3.10;2.80;;;16.30;99.90;;;;;;7379242;19;20372;-76
2022/08/03 02:36:38;;;;;;;3.80;3.17;;;16.30;99.90;;;;;;7376977;19;20376;-75
2022/08/03 02:39:04;;;;;;;3.20;2.90;;;16.30;99.90;;;;;;7379374;19;20335;-75
2022/08/03 02:41:31;;;;;;;3.05;2.85;;;16.30;99.90;;;;;;7378326;19;20712;-76
2022/08/03 02:43:58;;;;;;;3.47;3.28;;;16.20;99.90;;;;;;7376874;19;20395;-76
2022/08/03 02:46:27;;;;;;;3.00;2.80;;;16.30;99.90;;;;;;7378291;19;20363;-76
2022/08/03 02:48:53;;;;;;;3.17;2.97;;;16.30;99.90;;;;;;7379173;19;20348;-75
2022/08/03 02:51:19;;;;;;;4.28;2.95;;;16.20;99.90;;;;;;7379129;19;20340;-76
2022/08/03 02:53:44;;;;;;;3.37;3.07;;;16.20;99.90;;;;;;7375894;19;20359;-76
2022/08/03 02:56:10;;;;;;;3.92;3.10;;;16.20;99.90;;;;;;7378297;19;20337;-77
2022/08/03 02:58:36;;;;;;;3.20;2.90;;;16.20;99.90;;;;;;7376011;19;20750;-75
2022/08/03 03:01:01;;;;;;;3.53;3.22;;;16.10;99.90;;;;;;7378025;19;20901;-75
2022/08/03 03:03:27;;;;;;;3.20;2.90;;;16.10;99.90;;;;;;7374449;19;21090;-75
2022/08/03 03:05:53;;;;;;;3.22;2.92;;;16.10;99.90;;;;;;7376924;19;20336;-76
2022/08/03 03:08:19;;;;;;;3.30;3.03;;;16.10;99.90;;;;;;7376021;19;20932;-75
2022/08/03 03:10:45;;;;;;;3.22;2.97;;;16.10;99.90;;;;;;7376931;19;20348;-75
2022/08/03 03:13:10;;;;;;;3.08;2.88;;;16.10;99.90;;;;;;7376073;19;20379;-76
2022/08/03 03:15:37;;;;;;;2.77;2.57;;;16.10;99.90;;;;;;7376141;19;20361;-76
2022/08/03 03:18:03;;;;;;;6.17;3.57;;;16.20;99.90;;;;;;7374946;19;20349;-76
2022/08/03 03:20:28;;;;;;;3.72;3.40;;;16.20;99.90;;;;;;7377081;19;20374;-75
2022/08/03 03:22:54;;;;;;;3.60;3.30;;;16.10;99.90;;;;;;7374992;19;20329;-75
2022/08/03 03:25:19;;;;;;;3.03;2.83;;;16.10;99.90;;;;;;7376807;19;20360;-75
2022/08/03 03:27:47;;;;;;;3.65;3.30;;;16.10;99.90;;;;;;7375780;19;20347;-75
2022/08/03 03:30:13;;;;;;;3.53;3.23;;;16.10;99.90;;;;;;7377514;19;20324;-76
2022/08/03 03:32:38;;;;;;;4.43;3.45;;;16.00;99.90;;;;;;7375898;19;20363;-75
2022/08/03 03:35:04;;;;;;;4.50;4.10;;;16.00;99.90;;;;;;7375510;19;20334;-75
2022/08/03 03:37:30;;;;;;;4.28;3.88;;;16.00;99.90;;;;;;7375647;19;20443;-76
2022/08/03 03:39:55;;;;;;;3.37;3.10;;;16.00;99.90;;;;;;7377603;19;20356;-75
2022/08/03 03:42:21;;;;;;;3.35;3.15;;;16.10;99.90;;;;;;7376608;19;20772;-75
2022/08/03 03:44:47;;;;;;;3.30;3.10;;;16.10;99.90;;;;;;7377630;19;20335;-75
2022/08/03 03:47:12;;;;;;;3.20;2.90;;;16.10;99.90;;;;;;7374521;19;20364;-76
2022/08/03 03:49:38;;;;;;;3.50;3.20;;;16.00;99.90;;;;;;7371636;19;20333;-76
2022/08/03 03:52:04;;;;;;;3.15;2.95;;;16.10;99.90;;;;;;7374820;19;20369;-75
2022/08/03 03:54:42;;;;;;;3.50;3.20;;;16.10;99.90;;;;;;7375313;19;21519;-76
2022/08/03 03:57:09;;;;;;;3.00;2.80;;;16.10;99.90;;;;;;7376713;19;20903;-75
2022/08/03 03:59:41;;;;;;;3.15;2.95;;;16.10;99.90;;;;;;7378060;19;20674;-75
2022/08/03 04:02:07;;;;;;;3.00;2.80;;;16.10;99.90;;;;;;7372277;19;20352;-76
2022/08/03 04:12:49;;;;;;;3.65;3.35;;;16.30;99.90;;;;;;7374167;19;20389;-76
2022/08/03 04:15:14;;;;;;;4.20;3.23;;;16.20;99.90;;;;;;7376212;19;20340;-76
2022/08/03 04:17:40;;;;;;;4.27;3.80;;;16.30;99.90;;;;;;7374638;19;20338;-76
2022/08/03 04:20:06;;;;;;;3.70;3.20;;;16.30;99.90;;;;;;7375558;19;20348;-75
2022/08/03 04:22:32;;;;;;;3.17;2.92;;;16.30;99.90;;;;;;7374966;19;20455;-75
2022/08/03 04:25:03;;;;;;;3.57;3.27;;;16.40;99.90;;;;;;7375678;19;20851;-76
2022/08/03 04:27:33;;;;;;;3.50;3.20;;;16.40;99.90;;;;;;7372399;19;20390;-76
2022/08/03 04:29:58;;;;;;;3.72;3.42;;;16.50;99.90;;;;;;7379114;19;20730;-75
2022/08/03 04:32:25;;;;;;;3.37;3.13;;;16.50;99.90;;;;;;7379554;19;20352;-75
2022/08/03 04:34:51;;;;;;;3.60;3.38;;;16.60;99.90;;;;;;7385683;19;20324;-75
2022/08/03 04:37:44;;;;;;;3.40;3.10;;;16.70;99.90;;;;;;7382672;19;20373;-75
2022/08/03 04:40:13;;;;;;;3.20;3.00;;;16.70;99.90;;;;;;7381742;19;20348;-76
2022/08/03 04:42:38;;;;;;;3.30;3.10;;;16.70;99.90;;;;;;7380140;19;20379;-75
2022/08/03 04:45:04;;;;;;;3.50;3.20;;;16.80;99.90;;;;;;7382662;19;20991;-75
2022/08/03 04:47:31;;;;;;;3.28;2.97;;;16.80;99.90;;;;;;7379756;19;20459;-76
2022/08/03 04:49:56;;;;;;;3.72;3.42;;;16.90;99.90;;;;;;7383133;19;20320;-76
2022/08/03 04:52:22;;;;;;;3.20;2.90;;;17.00;99.90;;;;;;7382129;19;20376;-75
2022/08/03 04:54:48;;;;;;;3.60;3.30;;;17.00;99.90;;;;;;7383173;19;20322;-76
2022/08/03 04:57:14;;;;;;;3.27;3.07;;;17.00;99.90;;;;;;7379630;19;21432;-75
2022/08/03 04:59:39;;;;;;;3.75;3.45;;;17.20;99.90;;;;;;7383325;19;20341;-75
2022/08/03 05:02:05;;;;;;;3.70;3.40;;;17.20;99.90;;;;;;7378047;19;20389;-75
2022/08/03 05:04:31;;;;;;;3.85;3.55;;;17.30;99.90;;;;;;7358294;19;20333;-75
2022/08/03 05:06:57;;;;;;;3.27;2.97;;;17.40;99.90;;;;;;7378691;19;20370;-76
2022/08/03 05:09:22;;;;;;;3.75;3.30;;;17.50;99.90;;;;;;7383016;19;20400;-75
2022/08/03 05:11:48;;;;;;;3.47;3.17;;;17.50;99.90;;;;;;7380100;19;20356;-76
2022/08/03 05:14:13;;;;;;;3.60;3.30;;;17.60;99.90;;;;;;7379926;19;20867;-76
2022/08/03 05:16:39;;;;;;;3.58;3.28;;;17.70;99.90;;;;;;7378100;19;20356;-76
2022/08/03 05:19:04;;;;;;;3.22;3.03;;;17.70;99.90;;;;;;7380004;19;20316;-76
2022/08/03 05:21:30;;;;;;;4.00;3.70;;;17.80;99.90;;;;;;7381055;19;20364;-76
2022/08/03 05:23:56;;;;;;;3.67;3.38;;;17.80;99.90;;;;;;7379363;19;20385;-76
2022/08/03 05:26:22;;;;;;;3.67;3.23;;;17.90;99.90;;;;;;7380216;19;20344;-76
2022/08/03 05:28:47;;;;;;;3.90;3.50;;;18.00;99.90;;;;;;7378654;19;20354;-76
2022/08/03 05:31:13;;;;;;;3.42;3.13;;;18.10;99.90;;;;;;7382727;19;20381;-75
2022/08/03 05:33:38;;;;;;;3.57;3.20;;;18.20;99.90;;;;;;7374789;19;20359;-76
2022/08/03 05:36:05;;;;;;;4.45;3.20;;;18.30;99.90;;;;;;7378291;19;20356;-75
2022/08/03 05:38:31;;;;;;;3.50;3.20;;;18.50;99.90;;;;;;7377840;19;20336;-76
2022/08/03 05:40:56;;;;;;;3.58;3.28;;;18.60;99.90;;;;;;7379635;19;20388;-75
2022/08/03 05:43:22;;;;;;;3.95;3.60;;;18.70;99.90;;;;;;7372091;19;20878;-76
2022/08/03 05:45:47;;;;;;;5.67;3.10;;;18.80;99.90;;;;;;7378485;19;21116;-76
2022/08/03 05:48:13;;;;;;;4.27;3.87;;;18.80;99.90;;;;;;7377642;19;20325;-76
2022/08/03 05:50:38;;;;;;;4.40;4.00;;;19.00;99.90;;;;;;7384106;19;21209;-77
2022/08/03 05:56:33;;;;;;;4.38;3.80;;;19.30;99.90;;;;;;7375478;19;20315;-76
2022/08/03 05:58:59;;;;;;;4.03;3.63;;;19.60;99.90;;;;;;7381761;19;20344;-77
2022/08/03 06:01:24;;;;;;;4.53;3.50;;;19.80;99.90;;;;;;7376725;19;20762;-76
2022/08/03 06:03:51;;;;;;;5.65;3.33;;;20.10;99.90;;;;;;7377984;19;20340;-76
2022/08/03 06:06:16;;;;;;;3.90;3.60;;;20.30;99.90;;;;;;7376539;19;20365;-76
2022/08/03 06:08:42;;;;;;;3.53;3.22;;;20.50;99.90;;;;;;7381224;19;20992;-77
2022/08/03 06:11:08;;;;;;;3.75;3.45;;;20.70;99.90;;;;;;7379226;19;20899;-76
2022/08/03 06:13:34;;;;;;;4.30;3.90;;;20.80;99.90;;;;;;7379280;19;20380;-76
2022/08/03 06:15:59;;;;;;;4.90;3.67;;;21.00;99.90;;;;;;7376863;19;20893;-76
2022/08/03 06:18:25;;;;;;;3.78;3.47;;;21.00;99.90;;;;;;7381504;19;20332;-76
2022/08/03 06:20:51;;;;;;;4.43;3.70;;;21.20;99.90;;;;;;7378462;19;20336;-77
2022/08/03 06:23:16;;;;;;;3.90;3.58;;;21.40;99.90;;;;;;7382065;19;20373;-76
2022/08/03 06:25:42;;;;;;;3.60;3.20;;;21.50;99.90;;;;;;7377634;19;20343;-76
2022/08/03 06:28:08;;;;;;;3.60;3.30;;;21.70;99.90;;;;;;7381599;19;20341;-76
2022/08/03 06:30:33;;;;;;;3.80;3.30;;;21.90;99.90;;;;;;7378689;19;20304;-76
2022/08/03 06:32:59;;;;;;;4.50;3.80;;;22.00;99.90;;;;;;7378779;19;20344;-77
2022/08/03 06:35:26;;;;;;;4.47;3.77;;;22.20;99.90;;;;;;7377333;19;20349;-76
2022/08/03 06:37:52;;;;;;;3.38;3.08;;;22.30;99.90;;;;;;7381414;19;20336;-76
2022/08/03 06:40:27;;;;;;;6.25;4.05;;;22.50;99.90;;;;;;7379379;19;20364;-77
2022/08/03 06:42:53;;;;;;;4.65;4.25;;;22.60;99.90;;;;;;7383758;19;20364;-76
2022/08/03 06:45:19;;;;;;;4.20;3.80;;;22.60;99.90;;;;;;7377437;19;20317;-77
2022/08/03 06:47:44;;;;;;;4.40;4.00;;;22.50;99.90;;;;;;7381861;19;20880;-77
2022/08/03 06:50:10;;;;;;;4.45;4.05;;;22.50;99.90;;;;;;7380161;19;20352;-76
2022/08/03 06:52:36;;;;;;;4.95;4.30;;;22.50;99.90;;;;;;7380263;19;20893;-76
2022/08/03 06:55:01;;;;;;;6.90;4.50;;;22.50;99.90;;;;;;7376761;19;20443;-76
2022/08/03 06:57:27;;;;;;;5.00;4.53;;;22.50;99.90;;;;;;7379768;19;20353;-78
2022/08/03 06:59:52;;;;;;;4.53;4.13;;;22.60;99.90;;;;;;7377818;19;20972;-76
2022/08/03 07:02:19;;;;;;;4.63;4.13;;;22.80;99.90;;;;;;7379475;19;20352;-77
2022/08/03 07:04:44;;;;;;;5.10;4.60;;;22.90;99.90;;;;;;7376518;19;20341;-76
2022/08/03 07:07:10;;;;;;;6.23;4.67;;;23.00;99.90;;;;;;7376135;19;21016;-76
2022/08/03 07:09:35;;;;;;;4.43;3.50;;;23.20;99.90;;;;;;7377064;19;20365;-77
2022/08/03 07:12:02;;;;;;;5.20;4.28;;;23.30;99.90;;;;;;7376559;19;20381;-76
2022/08/03 07:14:28;;;;;;;4.10;3.70;;;23.60;99.90;;;;;;7378246;19;20344;-76
2022/08/03 07:16:54;;;;;;;3.80;3.40;;;23.70;99.90;;;;;;7376668;19;20663;-76
2022/08/03 07:19:19;;;;;;;4.73;3.50;;;23.90;99.90;;;;;;7378165;19;20869;-77
2022/08/03 07:21:46;;;;;;;5.23;3.50;;;24.00;99.90;;;;;;7376083;19;20348;-76
2022/08/03 07:24:11;;;;;;;3.47;3.08;;;24.10;99.90;;;;;;7378218;19;20369;-77
2022/08/03 07:26:37;;;;;;;3.47;3.27;;;24.30;99.90;;;;;;7375215;19;21258;-76
2022/08/03 07:29:02;;;;;;;3.90;3.40;;;24.50;99.90;;;;;;7377986;19;20329;-76
2022/08/03 07:31:28;;;;;;;4.22;3.50;;;24.70;99.90;;;;;;7375553;19;20342;-77
2022/08/03 07:33:53;;;;;;;3.95;3.35;;;24.90;99.90;;;;;;7378681;19;20488;-77
2022/08/03 07:36:19;;;;;;;5.57;3.27;;;25.10;99.90;;;;;;7383097;19;20346;-80
2022/08/03 07:38:44;;;;;;;4.60;3.40;;;25.30;99.90;;;;;;7380867;19;20371;-77
2022/08/03 07:41:10;;;;;;;3.93;3.53;;;25.50;99.90;;;;;;7372459;19;20353;-77
2022/08/03 07:43:36;;;;;;;3.40;3.10;;;25.70;99.90;;;;;;7378336;19;20369;-77
2022/08/03 07:46:01;;;;;;;3.90;3.28;;;25.70;99.90;;;;;;7375854;19;20335;-78
2022/08/03 07:48:27;;;;;;;3.65;2.83;;;25.70;99.90;;;;;;7379792;19;20374;-77
2022/08/03 07:50:52;;;;;;;2.83;2.63;;;25.90;99.90;;;;;;7377170;19;20348;-77
2022/08/03 07:53:18;;;;;;;5.80;2.90;;;26.10;99.90;;;;;;7375074;19;20373;-77
2022/08/03 07:55:43;;;;;;;3.77;3.17;;;26.40;99.90;;;;;;7375143;19;20561;-78
2022/08/03 07:58:16;;;;;;;2.95;2.72;;;26.50;99.90;;;;;;7378944;19;20357;-78
2022/08/03 08:00:43;;;;;;;2.78;2.58;;;26.80;99.90;;;;;;7374468;19;20304;-79
2022/08/03 08:03:08;;;;;;;2.85;2.60;;;27.00;99.90;;;;;;7376666;19;20373;-78
2022/08/03 08:05:34;;;;;;;3.07;2.47;;;27.20;99.90;;;;;;7376854;19;20377;-79
2022/08/03 08:08:00;;;;;;;3.10;2.60;;;27.40;99.90;;;;;;7387149;19;20333;-79
2022/08/03 08:10:26;;;;;;;3.90;2.70;;;27.60;99.90;;;;;;7383153;19;20387;-78
2022/08/03 08:12:51;;;;;;;2.60;2.30;;;27.70;99.90;;;;;;7384123;19;20341;-78
2022/08/03 08:15:17;;;;;;;3.28;1.88;;;27.90;99.90;;;;;;7382910;19;20354;-78
2022/08/03 08:17:53;;;;;;;1.88;1.60;;;28.20;99.90;;;;;;7385968;19;20376;-78
2022/08/03 08:20:23;;;;;;;2.40;2.20;;;28.50;99.90;;;;;;7383425;19;20346;-79
2022/08/03 08:22:49;;;;;;;1.83;1.73;;;28.90;99.90;;;;;;7386378;19;20373;-77
2022/08/03 08:25:15;;;;;;;2.08;1.80;;;29.00;99.90;;;;;;7383719;19;21147;-78
2022/08/03 08:27:45;;;;;;;2.20;2.00;;;29.20;99.90;;;;;;7384294;19;20356;-79
2022/08/03 08:30:12;;;;;;;2.22;2.05;;;29.30;99.90;;;;;;7384649;19;20369;-79
2022/08/03 08:32:37;;;;;;;3.47;1.77;;;29.40;96.90;;;;;;7386843;19;20455;-79
2022/08/03 08:35:04;;;;;;;2.20;2.00;;;29.50;98.20;;;;;;7383973;19;20538;-79
2022/08/03 08:37:29;;;;;;;1.90;1.80;;;29.60;99.90;;;;;;7386330;19;20942;-77
2022/08/03 08:39:55;;;;;;;1.80;1.70;;;29.60;94.50;;;;;;7384588;19;20364;-79
2022/08/03 08:42:21;;;;;;;4.03;2.00;;;29.80;98.00;;;;;;7385078;19;20395;-77
2022/08/03 08:44:46;;;;;;;2.22;1.90;;;30.00;97.40;;;;;;7383588;19;20349;-77
2022/08/03 08:47:12;;;;;;;3.33;1.90;;;30.20;96.40;;;;;;7381659;19;20411;-76
2022/08/03 08:49:37;;;;;;;2.10;1.90;;;30.40;95.50;;;;;;7384667;19;20340;-77
2022/08/03 08:52:03;;;;;;;1.83;1.73;;;30.60;94.60;;;;;;7382088;19;20961;-79
2022/08/03 08:54:29;;;;;;;1.73;1.63;;;30.80;91.50;;;;;;7385602;19;20367;-79
2022/08/03 08:56:54;;;;;;;1.90;1.80;;;30.90;92.00;;;;;;7380678;19;20342;-78
2022/08/03 08:59:20;;;;;;;1.80;1.70;;;31.00;90.00;;;;;;7360677;19;20835;-78
2022/08/03 09:01:46;;;;;;;1.83;1.73;;;31.20;90.90;;;;;;7372953;19;20452;-78
2022/08/03 09:04:11;;;;;;;3.08;1.70;;;31.20;90.60;;;;;;7351984;19;20676;-77
2022/08/03 09:06:37;;;;;;;2.35;1.95;;;31.40;88.40;;;;;;7314806;19;20436;-77
2022/08/03 09:09:02;;;;;;;3.30;1.80;;;30.90;83.00;;;;;;7371527;19;20342;-77
2022/08/03 09:11:28;;;;;;;1.80;1.70;;;30.90;86.50;;;;;;7379414;19;20352;-78
2022/08/03 09:13:53;;;;;;;2.00;1.90;;;31.10;87.50;;;;;;7379901;19;20344;-78
2022/08/03 09:16:20;;;;;;;1.80;1.70;;;31.30;88.00;;;;;;7378548;19;20337;-75
2022/08/03 09:18:50;;;;;;;1.77;1.67;;;31.50;87.50;;;;;;7384304;19;20436;-77
2022/08/03 09:21:34;;;;;;;1.92;1.70;;;31.80;87.80;;;;;;7381197;19;20357;-78
2022/08/03 09:24:00;;;;;;;1.75;1.65;;;31.90;84.00;;;;;;7381181;19;20373;-77
2022/08/03 09:26:27;;;;;;;1.70;1.60;;;32.30;86.00;;;;;;7378152;19;20356;-78
2022/08/03 09:29:00;;;;;;;1.60;1.50;;;32.40;84.30;;;;;;7380470;19;20764;-77
2022/08/03 09:31:39;;;;;;;3.03;1.73;;;32.30;81.90;;;;;;7379883;19;20413;-77
2022/08/03 09:34:06;;;;;;;1.75;1.48;;;32.60;81.60;;;;;;7380046;19;20360;-78
2022/08/03 09:36:37;;;;;;;1.70;1.60;;;32.70;77.10;;;;;;7379755;19;20381;-77
2022/08/03 09:39:10;;;;;;;1.67;1.57;;;32.80;81.80;;;;;;7382299;19;21119;-77
2022/08/03 09:41:37;;;;;;;3.80;1.67;;;33.00;80.00;;;;;;7379264;19;20999;-77
2022/08/03 09:44:03;;;;;;;2.37;1.90;;;33.20;80.50;;;;;;7380231;19;20992;-78
2022/08/03 09:46:30;;;;;;;2.67;1.60;;;33.30;75.00;;;;;;7377969;19;20341;-78
2022/08/03 09:49:10;;;;;;;1.60;1.50;;;33.30;73.70;;;;;;7380395;19;21284;-78
2022/08/03 09:51:36;;;;;;;1.67;1.57;;;33.30;73.90;;;;;;7378926;19;20400;-78
2022/08/03 09:54:03;;;;;;;1.90;1.52;;;33.30;72.70;;;;;;7378639;19;20472;-78
2022/08/03 09:56:45;;;;;;;1.60;1.50;;;33.60;77.20;;;;;;7378136;19;20368;-78
2022/08/03 09:59:13;;;;;;;3.10;1.80;;;34.00;74.50;;;;;;7382359;19;20332;-76
2022/08/03 10:01:41;;;;;;;1.80;1.60;;;33.90;73.00;;;;;;7376848;19;20436;-76
2022/08/03 10:04:15;;;;;;;1.60;1.50;;;34.40;73.80;;;;;;7376676;19;20352;-77
2022/08/03 10:06:42;;;;;;;1.60;1.50;;;34.70;72.70;;;;;;7377872;19;20340;-76
2022/08/03 10:09:13;;;;;;;2.63;1.55;;;34.60;70.10;;;;;;7383732;19;20341;-77
2022/08/03 10:11:39;;;;;;;1.60;1.35;;;34.80;70.10;;;;;;7379652;19;21467;-76
2022/08/03 10:14:06;;;;;;;1.60;1.50;;;35.20;69.60;;;;;;7376681;19;20371;-77
2022/08/03 10:16:36;;;;;;;1.60;1.50;;;35.20;67.20;;;;;;7378309;19;20345;-77
2022/08/03 10:19:03;;;;;;;1.77;1.67;;;35.40;70.30;;;;;;7381591;19;20371;-77
2022/08/03 10:21:31;;;;;;;1.80;1.70;;;35.50;65.80;;;;;;7379824;19;21345;-77
2022/08/03 10:23:57;;;;;;;1.65;1.55;;;35.80;65.30;;;;;;7379551;19;20364;-76
2022/08/03 10:26:23;;;;;;;1.30;1.30;;;35.80;66.80;;;;;;7376086;19;20340;-77
2022/08/03 10:28:49;;;;;;;1.80;1.70;;;36.10;66.70;;;;;;7380391;19;21213;-77
2022/08/03 10:31:15;;;;;;;2.90;1.70;;;36.30;62.70;;;;;;7377771;19;20332;-77
2022/08/03 10:33:42;;;;;;;1.65;1.55;;;36.10;62.10;;;;;;7380118;19;20710;-77
2022/08/03 10:36:08;;;;;;;1.60;1.50;;;36.40;64.10;;;;;;7376943;19;20374;-78
2022/08/03 10:38:44;;;;;;;1.90;1.58;;;37.20;65.50;;;;;;7380210;19;20379;-77
2022/08/03 10:41:10;;;;;;;1.80;1.65;;;37.40;60.60;;;;;;7378741;19;20390;-78
2022/08/03 10:43:49;;;;;;;2.20;1.80;;;37.50;57.50;;;;;;7379425;19;20381;-78
2022/08/03 10:46:15;;;;;;;1.70;1.60;;;37.60;60.50;;;;;;7376958;19;20392;-76
2022/08/03 10:48:40;;;;;;;1.85;1.75;;;37.50;61.20;;;;;;7381914;19;20337;-78
2022/08/03 10:51:06;;;;;;;2.43;1.60;;;37.60;62.90;;;;;;7380162;19;20353;-75
2022/08/03 10:53:41;;;;;;;1.73;1.63;;;37.50;60.10;;;;;;7379854;19;20913;-76
2022/08/03 10:59:04;;;;;;;2.60;1.90;;;38.10;61.90;;;;;;7381226;19;20683;-77
2022/08/03 11:02:02;;;;;;;2.70;1.80;;;38.30;54.90;;;;;;7378450;19;20341;-77
2022/08/03 11:04:28;;;;;;;1.60;1.50;;;38.30;56.70;;;;;;7376521;19;20356;-76
2022/08/03 11:07:19;;;;;;;2.05;1.60;;;38.50;59.40;;;;;;7376352;19;20348;-77
2022/08/03 11:09:47;;;;;;;1.63;1.48;;;38.60;53.00;;;;;;7381589;19;20341;-77
2022/08/03 11:12:23;;;;;;;1.92;1.73;;;38.80;56.40;;;;;;7377231;19;20407;-78
2022/08/03 11:14:48;;;;;;;1.70;1.60;;;38.80;52.80;;;;;;7378701;19;20335;-76
2022/08/03 11:17:14;;;;;;;1.70;1.60;;;39.30;53.40;;;;;;7377524;19;20372;-76
2022/08/03 11:19:42;;;;;;;2.47;1.90;;;39.40;53.50;;;;;;7380459;19;20821;-76
2022/08/03 11:22:08;;;;;;;1.75;1.58;;;39.40;51.90;;;;;;7374526;19;20381;-76
2022/08/03 11:24:39;;;;;;;3.67;1.50;;;39.30;52.40;;;;;;7379464;19;20355;-76
2022/08/03 11:27:14;;;;;;;1.58;1.48;;;39.30;53.50;;;;;;7374589;19;20353;-76
2022/08/03 11:30:01;;;;;;;3.10;1.80;;;39.30;52.50;;;;;;7382639;19;20870;-77
2022/08/03 11:32:36;;;;;;;2.53;1.67;;;39.20;50.50;;;;;;7378546;19;20346;-77
2022/08/03 11:35:11;;;;;;;1.60;1.50;;;39.50;52.50;;;;;;7380228;19;20329;-76
2022/08/03 11:37:56;;;;;;;1.60;1.50;;;39.50;52.10;;;;;;7379276;19;20384;-77
2022/08/03 11:40:45;;;;;;;1.40;1.30;;;39.30;51.20;;;;;;7373626;19;21098;-76
2022/08/03 11:43:29;;;;;;;1.80;1.70;;;39.60;52.00;;;;;;7377909;19;20372;-77
2022/08/03 11:45:58;;;;;;;1.50;1.38;;;39.70;48.20;;;;;;7373930;19;20349;-76
2022/08/03 11:48:43;;;;;;;3.28;1.50;;;39.70;47.60;;;;;;7378363;19;20646;-76
2022/08/03 11:51:28;;;;;;;1.95;1.55;;;39.60;51.30;;;;;;7378634;19;20344;-77
2022/08/03 11:54:03;;;;;;;1.98;1.58;;;39.90;49.60;;;;;;7377971;19;20357;-76
2022/08/03 11:56:42;;;;;;;2.40;1.60;;;40.00;50.90;;;;;;7376026;19;20337;-76
2022/08/03 11:59:08;;;;;;;1.58;1.48;;;40.40;51.70;;;;;;7378806;19;20357;-77
2022/08/03 12:01:33;;;;;;;1.90;1.70;;;40.40;47.30;;;;;;7377046;19;20350;-78
2022/08/03 12:04:03;;;;;;;1.48;1.38;;;40.50;47.50;;;;;;7379161;19;20775;-77
2022/08/03 12:06:28;;;;;;;1.50;1.40;;;40.60;46.90;;;;;;7372919;19;21013;-77
2022/08/03 12:08:54;;;;;;;1.30;1.30;;;40.70;49.50;;;;;;7379736;19;20321;-77
2022/08/03 12:11:20;;;;;;;1.50;1.40;;;41.00;46.30;;;;;;7376183;19;21084;-77
2022/08/03 12:13:47;;;;;;;1.37;1.30;;;39.80;42.10;;;;;;7377182;19;20383;-76
2022/08/03 12:16:22;;;;;;;1.52;1.42;;;40.30;47.60;;;;;;7375629;19;20930;-78
2022/08/03 12:19:14;;;;;;;1.40;1.30;;;40.40;46.10;;;;;;7378382;19;20328;-77
2022/08/03 12:21:47;;;;;;;1.40;1.30;;;40.50;44.20;;;;;;7377867;19;20357;-76
2022/08/03 12:24:12;;;;;;;1.60;1.50;;;40.40;46.10;;;;;;7377579;19;20996;-76
2022/08/03 12:26:49;;;;;;;1.50;1.40;;;40.70;46.50;;;;;;7373752;19;20376;-77
2022/08/03 12:29:18;;;;;;;1.27;1.23;;;40.30;41.90;;;;;;7378024;19;20358;-77
2022/08/03 12:31:43;;;;;;;1.35;1.25;;;40.80;43.50;;;;;;7374409;19;20352;-76
2022/08/03 12:34:10;;;;;;;2.10;1.40;;;41.20;46.50;;;;;;7376338;19;20341;-75
2022/08/03 12:36:36;;;;;;;1.23;1.23;;;41.40;46.40;;;;;;7372496;19;20671;-77
2022/08/03 12:39:06;;;;;;;3.30;1.50;;;41.40;44.80;;;;;;7378069;19;20935;-76
2022/08/03 12:41:34;;;;;;;1.60;1.50;;;40.90;41.30;;;;;;7374799;19;20395;-75
2022/08/03 12:43:59;;;;;;;1.27;1.20;;;40.70;44.70;;;;;;7375214;19;20364;-76
2022/08/03 12:46:29;;;;;;;1.70;1.50;;;40.80;43.30;;;;;;7373044;19;20362;-77
2022/08/03 12:49:14;;;;;;;1.65;1.30;;;40.40;42.30;;;;;;7376540;19;20412;-77
2022/08/03 12:51:42;;;;;;;1.50;1.35;;;40.20;41.90;;;;;;7379141;19;20357;-77
2022/08/03 12:54:18;;;;;;;1.33;1.23;;;39.90;44.60;;;;;;7384700;19;20356;-77
2022/08/03 12:57:06;;;;;;;1.30;1.30;;;40.00;43.50;;;;;;7380400;19;20361;-77
2022/08/03 12:59:33;;;;;;;2.30;1.30;;;40.20;46.20;;;;;;7384772;19;20365;-76
2022/08/03 13:01:59;;;;;;;1.50;1.40;;;40.00;42.90;;;;;;7383144;19;20324;-78
2022/08/03 13:04:29;;;;;;;1.60;1.38;;;40.00;44.60;;;;;;7386846;19;20379;-77
2022/08/03 13:06:58;;;;;;;3.03;2.80;;;40.00;43.00;;;;;;7380659;19;20372;-77